Weather reports worldwide

Advertisment
Capo Spartivento, Italy (16469): temperature & dewpoint: 15.01.2018 04:00:00 - 21.01.2018 04:00:00 (CET)Capo Spartivento, Italy (16469): wind speed: 15.01.2018 04:00:00 - 21.01.2018 04:00:00 (CET)Capo Spartivento, Italy (16469): wind direction: 15.01.2018 04:00:00 - 21.01.2018 04:00:00 (CET)Capo Spartivento, Italy (16469): reduced air pressure: 15.01.2018 04:00:00 - 21.01.2018 04:00:00 (CET)Capo Spartivento, Italy (16469): precipitation: 15.01.2018 04:00:00 - 21.01.2018 04:00:00 (CET)
Date & Time tt [°C] td [°C] ff [km/h] ff [kn] dd ppp [hPa] rr [mm]
21.01.2018 04:00:00 - - - - - - -
21.01.2018 03:00:00 15,7 11,4 11 6 ENE 1011,4 -
21.01.2018 02:00:00 15,8 11,5 5 3 NNE 1011,7 -
21.01.2018 01:00:00 15,8 11,1 8 4 E 1011,7 -
21.01.2018 00:00:00 15,7 10,8 4 2 WNW 1012,5 -
20.01.2018 23:00:00 15,2 12,7 9 5 WNW 1013,0 -
20.01.2018 22:00:00 15,3 12,9 11 6 NW 1013,0 -
20.01.2018 21:00:00 15,6 12,8 9 5 NNW 1013,0 -
20.01.2018 20:00:00 16,1 12,9 9 5 NNE 1012,7 -
20.01.2018 19:00:00 16,3 12,8 4 2 SSW 1012,5 0,0
20.01.2018 18:00:00 17,1 13,0 4 2 SSW 1012,3 -
20.01.2018 17:00:00 17,7 11,4 5 3 NNE 1012,1 -
20.01.2018 16:00:00 19,8 12,3 4 2 WSW 1011,6 -
20.01.2018 15:00:00 19,8 12,8 5 3 E 1011,3 -
20.01.2018 14:00:00 19,6 12,6 5 3 W 1011,3 -
20.01.2018 13:00:00 19,1 12,1 9 5 ENE 1011,7 0,0
20.01.2018 12:00:00 18,0 13,0 13 7 NNE 1012,5 -
20.01.2018 11:00:00 18,2 12,2 11 6 NNE 1013,1 -
20.01.2018 10:00:00 17,7 11,0 4 2 SW 1013,1 -
20.01.2018 09:00:00 16,4 11,3 4 2 W 1013,1 -
20.01.2018 08:00:00 17,2 13,8 11 6 W 1012,9 -
20.01.2018 07:00:00 14,8 12,5 9 5 WNW 1012,5 0,0
20.01.2018 06:00:00 14,4 10,8 15 8 NNW 1012,1 -
20.01.2018 05:00:00 14,3 11,6 11 6 NW 1011,9 -
20.01.2018 04:00:00 15,1 12,6 11 6 SW 1012,2 -
20.01.2018 03:00:00 15,6 13,2 15 8 W 1012,8 -
20.01.2018 02:00:00 15,3 11,3 16 9 WSW 1012,6 -
20.01.2018 01:00:00 15,4 11,7 21 11 WNW 1012,8 -
20.01.2018 00:00:00 15,3 12,6 21 11 SW 1013,7 -
19.01.2018 23:00:00 16,0 11,7 5 3 WNW 1013,7 -
19.01.2018 22:00:00 16,4 9,7 9 5 SW 1013,4 -
19.01.2018 21:00:00 15,3 11,6 11 6 WNW 1013,4 -
19.01.2018 20:00:00 15,7 11,6 4 2 NNW 1013,6 -
19.01.2018 19:00:00 16,5 12,8 11 6 NW 1013,7 0,0
19.01.2018 18:00:00 15,7 12,9 8 4 N 1013,8 -
19.01.2018 17:00:00 16,1 13,1 18 10 ENE 1013,8 -
19.01.2018 16:00:00 17,0 12,3 31 17 S 1013,4 -
19.01.2018 15:00:00 17,2 13,6 28 15 WSW 1013,5 -
19.01.2018 14:00:00 17,3 13,9 31 17 S 1013,6 -
19.01.2018 13:00:00 17,4 14,0 22 12 ESE 1014,7 0,0
19.01.2018 12:00:00 16,7 13,0 28 15 NNW 1015,5 -
19.01.2018 11:00:00 16,3 13,0 31 17 S 1016,1 -
19.01.2018 10:00:00 15,7 12,6 22 12 W 1016,1 -
19.01.2018 09:00:00 15,4 9,0 15 8 S 1017,0 -
19.01.2018 08:00:00 16,6 8,5 11 6 W 1016,9 -
19.01.2018 07:00:00 17,3 10,6 11 6 W 1017,1 0,0
19.01.2018 06:00:00 14,5 7,2 5 3 W 1017,2 -
19.01.2018 05:00:00 14,2 6,7 9 5 W 1017,4 -
19.01.2018 04:00:00 13,8 6,1 9 5 WNW 1018,0 -
19.01.2018 03:00:00 13,9 3,8 9 5 NW 1018,2 -
19.01.2018 02:00:00 15,4 3,1 15 8 W 1018,7 -
19.01.2018 01:00:00 14,8 2,9 16 9 SSW 1018,7 0,0
19.01.2018 00:00:00 15,3 3,7 18 10 SW 1018,9 -
18.01.2018 23:00:00 15,1 5,2 15 8 E 1019,6 -
18.01.2018 22:00:00 15,2 4,2 11 6 NW 1020,3 -
18.01.2018 21:00:00 15,6 2,6 9 5 ESE 1020,6 -
18.01.2018 20:00:00 15,7 3,1 4 2 ENE 1020,9 -
18.01.2018 19:00:00 15,8 -2,3 21 11 WSW 1020,6 0,0
18.01.2018 18:00:00 16,8 5,6 11 6 W 1020,7 -
18.01.2018 17:00:00 17,3 4,5 9 5 ENE 1020,4 -
18.01.2018 16:00:00 18,6 3,2 9 5 N 1020,7 -
18.01.2018 15:00:00 19,2 2,9 9 5 NNE 1020,6 -
18.01.2018 14:00:00 18,4 1,3 11 6 ENE 1020,7 -
18.01.2018 13:00:00 18,6 2,3 9 5 NE 1020,9 0,0
18.01.2018 12:00:00 17,8 1,2 15 8 NNE 1021,3 -
18.01.2018 11:00:00 17,8 0,8 5 3 NNE 1021,1 -
18.01.2018 10:00:00 16,2 1,0 8 4 N 1020,3 -
18.01.2018 09:00:00 14,9 2,0 18 10 NNW 1018,9 -
18.01.2018 08:00:00 14,7 2,2 11 6 NNW 1018,0 -
18.01.2018 07:00:00 15,4 -2,2 13 7 W 1016,6 -
18.01.2018 06:00:00 15,6 -1,6 9 5 W 1015,6 -
18.01.2018 05:00:00 15,8 -1,9 4 2 NW 1014,9 -
18.01.2018 04:00:00 16,4 -1,3 9 5 WNW 1014,3 -
18.01.2018 03:00:00 16,5 0,9 11 6 N 1013,2 -
18.01.2018 02:00:00 16,7 0,7 11 6 NNW 1012,2 -
18.01.2018 01:00:00 17,0 3,9 22 12 E 1010,6 -
18.01.2018 00:00:00 17,4 2,8 34 18 E 1009,7 -
17.01.2018 23:00:00 17,1 2,2 16 9 SW 1009,7 -
17.01.2018 22:00:00 17,6 0,2 59 32 ENE 1007,0 -
17.01.2018 21:00:00 17,6 4,5 44 24 SW 1007,5 -
17.01.2018 20:00:00 18,5 4,2 52 28 SW 1006,0 -
17.01.2018 19:00:00 18,9 6,3 35 19 SSW 1005,3 0,0
17.01.2018 18:00:00 18,9 9,3 34 18 W 1004,9 -
17.01.2018 17:00:00 19,0 10,5 26 14 NW 1006,2 -
17.01.2018 16:00:00 20,0 10,4 16 9 SSW 1006,6 -
17.01.2018 15:00:00 19,9 11,9 28 15 S 1007,0 -
17.01.2018 14:00:00 19,3 11,3 18 10 ENE 1007,5 -
17.01.2018 13:00:00 18,8 11,8 18 10 N 1008,7 0,0
17.01.2018 12:00:00 19,5 11,0 15 8 ESE 1010,0 -
17.01.2018 11:00:00 18,8 10,8 28 15 WNW 1010,6 -
17.01.2018 10:00:00 18,7 11,7 15 8 S 1011,3 -
17.01.2018 09:00:00 17,9 11,4 18 10 SE 1010,8 -
17.01.2018 08:00:00 17,5 11,3 22 12 SSW 1010,8 -
17.01.2018 07:00:00 17,3 11,1 16 9 W 1011,1 0,0
17.01.2018 06:00:00 17,1 11,1 21 11 N 1011,7 -
17.01.2018 05:00:00 17,0 11,4 18 10 NW 1012,5 -
17.01.2018 04:00:00 17,0 11,7 22 12 SE 1012,9 -
17.01.2018 03:00:00 17,0 11,7 22 12 WNW 1013,5 -
17.01.2018 02:00:00 17,3 10,1 15 8 SSE 1014,8 -
17.01.2018 01:00:00 17,1 9,9 24 13 ENE 1014,5 0,0
17.01.2018 00:00:00 16,8 10,4 15 8 NW 1014,9 -
16.01.2018 23:00:00 16,9 10,2 15 8 E 1015,6 -
16.01.2018 22:00:00 17,0 10,1 15 8 S 1015,8 -
16.01.2018 21:00:00 17,2 10,7 16 9 ENE 1016,4 -
16.01.2018 20:00:00 17,3 11,1 18 10 W 1016,8 -
16.01.2018 19:00:00 17,1 9,7 16 9 NNE 1017,4 -
16.01.2018 18:00:00 17,2 9,1 24 13 SW 1017,0 -
16.01.2018 17:00:00 17,5 8,0 26 14 N 1017,5 -
16.01.2018 16:00:00 17,9 7,8 24 13 W 1017,9 -
16.01.2018 15:00:00 18,2 7,8 22 12 N 1018,2 -
16.01.2018 14:00:00 17,8 5,9 28 15 SW 1018,4 -
16.01.2018 13:00:00 17,8 8,8 21 11 WNW 1019,2 0,0
16.01.2018 12:00:00 17,7 7,7 24 13 SSW 1020,3 -
16.01.2018 11:00:00 17,7 12,3 26 14 S 1021,3 -
16.01.2018 10:00:00 17,4 12,8 22 12 W 1021,4 -
16.01.2018 09:00:00 16,4 11,7 15 8 W 1021,3 -
16.01.2018 08:00:00 15,9 9,3 13 7 SSW 1021,1 -
16.01.2018 07:00:00 15,4 9,2 13 7 W 1020,9 0,0
16.01.2018 06:00:00 15,6 9,4 13 7 N 1021,0 -
16.01.2018 05:00:00 15,5 9,6 15 8 N 1021,2 -
16.01.2018 04:00:00 15,6 9,9 11 6 ENE 1021,6 -
16.01.2018 03:00:00 15,4 10,1 15 8 N 1022,1 -
16.01.2018 02:00:00 15,4 10,5 11 6 E 1022,4 -
16.01.2018 01:00:00 15,5 11,4 11 6 SSW 1022,4 0,0
16.01.2018 00:00:00 15,5 10,4 8 4 SSW 1022,6 -
15.01.2018 23:00:00 15,6 9,2 13 7 SSW 1022,7 -
15.01.2018 22:00:00 15,8 7,5 11 6 SW 1022,7 -
15.01.2018 21:00:00 17,0 10,1 9 5 W 1022,3 -
15.01.2018 20:00:00 16,1 11,4 11 6 W 1021,9 -
15.01.2018 19:00:00 16,9 13,0 8 4 W 1021,8 0,0
15.01.2018 18:00:00 15,4 12,8 8 4 SW 1021,5 -
15.01.2018 17:00:00 15,8 12,8 11 6 E 1021,5 -
15.01.2018 16:00:00 16,0 13,0 9 5 WNW 1021,3 -
15.01.2018 15:00:00 16,6 13,6 16 9 SE 1021,0 -
15.01.2018 14:00:00 17,0 14,0 16 9 WSW 1021,3 -
15.01.2018 13:00:00 17,0 13,4 15 8 WNW 1021,9 0,0
15.01.2018 12:00:00 16,9 13,0 16 9 SSW 1022,6 -
15.01.2018 11:00:00 16,4 12,7 11 6 SW 1023,3 -
15.01.2018 10:00:00 15,8 12,7 11 6 WSW 1023,1 -
15.01.2018 09:00:00 15,6 12,7 15 8 NE 1022,9 -
15.01.2018 08:00:00 15,2 11,5 11 6 SSW 1022,5 -
15.01.2018 07:00:00 15,1 11,5 15 8 W 1021,9 0,0
15.01.2018 06:00:00 15,2 11,7 13 7 SSW 1021,7 -
15.01.2018 05:00:00 15,1 11,3 15 8 SSW 1022,1 -
15.01.2018 04:00:00 15,3 11,5 13 7 SSW 1022,3 -

tt = temperature
td = dewpoint
ff = wind speed
dd = wind direction
ppp = reduced air pressure
rr = precipitation

Next stations